Time;durP1;ratioP1;P1;durP2;ratioP2;P2;SDS_P1;SDS_P2;PMS_P1;PMS_P2;Temp;Humidity;BMP_temperature;BMP_pressure;BME280_temperature;BME280_humidity;BME280_pressure;Samples;Min_cycle;Max_cycle;Signal;HPM_P1;HPM_P2
2024/04/24 00:01:37;;;;;;;1.25;0.85;;;15.90;55.20;;;;;;5452116;26;20327;-64
2024/04/24 00:04:03;;;;;;;1.33;0.82;;;15.90;55.20;;;;;;5451910;26;20642;-64
2024/04/24 00:06:28;;;;;;;0.93;0.85;;;15.80;55.20;;;;;;5451375;26;20249;-64
2024/04/24 00:08:54;;;;;;;1.67;0.95;;;15.80;55.20;;;;;;5451977;26;20215;-65
2024/04/24 00:11:20;;;;;;;1.45;0.75;;;15.80;55.20;;;;;;5451803;26;20569;-65
2024/04/24 00:13:45;;;;;;;1.58;0.68;;;15.80;55.20;;;;;;5451597;26;20542;-64
2024/04/24 00:16:11;;;;;;;1.73;0.88;;;15.80;55.10;;;;;;5451980;26;21148;-65
2024/04/24 00:18:36;;;;;;;1.20;0.70;;;15.80;55.30;;;;;;5431928;26;20582;-64
2024/04/24 00:21:02;;;;;;;0.70;0.70;;;15.80;55.20;;;;;;5414731;26;20688;-65
2024/04/24 00:23:28;;;;;;;1.15;0.80;;;15.80;55.20;;;;;;5414673;26;20642;-64
2024/04/24 00:25:56;;;;;;;1.13;0.75;;;15.80;55.30;;;;;;5414833;26;20255;-64
2024/04/24 00:28:22;;;;;;;2.60;1.02;;;15.80;55.30;;;;;;5416124;26;20224;-64
2024/04/24 00:30:47;;;;;;;1.40;0.93;;;15.80;55.30;;;;;;5415651;26;20271;-64
2024/04/24 00:33:13;;;;;;;1.55;0.80;;;15.70;55.30;;;;;;5415311;26;20225;-64
2024/04/24 00:35:38;;;;;;;0.80;0.63;;;15.70;55.20;;;;;;5415919;26;20225;-64
2024/04/24 00:38:04;;;;;;;0.82;0.70;;;15.70;55.20;;;;;;5415545;26;20584;-64
2024/04/24 00:40:29;;;;;;;3.40;1.05;;;15.80;55.30;;;;;;5415092;26;20691;-63
2024/04/24 00:42:55;;;;;;;1.55;0.70;;;15.80;55.30;;;;;;5415464;26;20224;-65
2024/04/24 00:45:20;;;;;;;1.42;0.85;;;15.80;55.30;;;;;;5415746;26;20271;-64
2024/04/24 00:47:47;;;;;;;2.20;0.77;;;15.70;55.30;;;;;;5414483;26;20224;-65
2024/04/24 00:50:15;;;;;;;1.25;0.63;;;15.70;55.30;;;;;;5415755;26;20276;-64
2024/04/24 00:52:41;;;;;;;0.75;0.65;;;15.70;55.90;;;;;;5355262;26;20562;-65
2024/04/24 00:55:07;;;;;;;1.00;0.90;;;15.70;55.30;;;;;;5414905;26;20259;-64
2024/04/24 00:57:33;;;;;;;1.25;0.73;;;15.70;55.30;;;;;;5415598;26;20220;-64
2024/04/24 00:59:58;;;;;;;0.63;0.63;;;15.70;55.30;;;;;;5415199;26;20255;-64
2024/04/24 01:02:24;;;;;;;0.75;0.60;;;15.70;55.30;;;;;;5383401;26;20220;-64
2024/04/24 01:04:49;;;;;;;2.30;1.05;;;15.70;55.30;;;;;;5413839;26;20224;-64
2024/04/24 01:07:15;;;;;;;2.05;0.90;;;15.70;55.40;;;;;;5384180;26;20224;-64
2024/04/24 01:09:40;;;;;;;1.77;0.80;;;15.70;55.30;;;;;;5414258;26;20220;-64
2024/04/24 01:12:06;;;;;;;1.55;0.77;;;15.60;55.30;;;;;;5415323;26;20565;-64
2024/04/24 01:14:31;;;;;;;0.55;0.55;;;15.60;55.30;;;;;;5415272;26;20220;-64
2024/04/24 01:16:57;;;;;;;1.50;0.70;;;15.60;55.30;;;;;;5382793;26;20263;-64
2024/04/24 01:19:32;;;;;;;1.20;0.68;;;15.60;55.40;;;;;;5439030;26;20788;-64
2024/04/24 01:22:20;;;;;;;0.70;0.70;;;15.70;55.40;;;;;;5448193;26;20211;-64
2024/04/24 01:24:50;;;;;;;1.63;0.77;;;15.60;55.40;;;;;;5450748;26;20228;-64
2024/04/24 01:27:16;;;;;;;0.95;0.70;;;15.60;55.30;;;;;;5449467;26;20246;-64
2024/04/24 01:29:41;;;;;;;1.23;0.70;;;15.60;55.40;;;;;;5449673;26;20216;-64
2024/04/24 01:32:07;;;;;;;1.52;0.70;;;15.60;55.40;;;;;;5450865;26;20262;-65
2024/04/24 01:34:32;;;;;;;0.70;0.70;;;15.60;55.60;;;;;;5451363;26;20266;-64
2024/04/24 01:36:58;;;;;;;1.55;0.80;;;15.60;55.50;;;;;;5453206;26;20220;-64
2024/04/24 01:39:23;;;;;;;1.92;0.68;;;15.60;55.40;;;;;;5454609;26;20219;-64
2024/04/24 01:41:49;;;;;;;1.20;0.90;;;15.60;55.50;;;;;;5453905;26;20215;-64
2024/04/24 01:44:14;;;;;;;0.70;0.70;;;15.60;55.50;;;;;;5453318;26;20335;-65
2024/04/24 01:46:40;;;;;;;2.60;0.85;;;15.60;55.50;;;;;;5454101;26;20227;-65
2024/04/24 01:49:05;;;;;;;1.05;0.93;;;15.60;55.50;;;;;;5454447;26;20348;-64
2024/04/24 01:51:31;;;;;;;1.30;0.60;;;15.50;55.50;;;;;;5453506;26;20228;-65
2024/04/24 01:53:57;;;;;;;0.85;0.68;;;15.60;55.50;;;;;;5453587;26;20336;-64
2024/04/24 01:56:22;;;;;;;0.95;0.68;;;15.50;55.50;;;;;;5454375;26;20227;-64
2024/04/24 01:58:48;;;;;;;0.80;0.70;;;15.50;55.60;;;;;;5452910;26;20274;-64
2024/04/24 02:01:13;;;;;;;1.33;0.70;;;15.60;55.50;;;;;;5454087;26;20227;-64
2024/04/24 02:03:39;;;;;;;1.00;0.80;;;15.50;55.50;;;;;;5454055;26;20219;-64
2024/04/24 02:06:04;;;;;;;1.23;0.80;;;15.50;55.50;;;;;;5452985;26;20230;-64
2024/04/24 02:08:30;;;;;;;2.03;0.95;;;15.60;55.60;;;;;;5453913;26;20266;-64
2024/04/24 02:10:55;;;;;;;1.05;0.70;;;15.50;55.60;;;;;;5452758;26;20227;-64
2024/04/24 02:13:21;;;;;;;1.00;0.80;;;15.50;55.50;;;;;;5453883;26;20566;-64
2024/04/24 02:15:46;;;;;;;0.93;0.60;;;15.50;55.60;;;;;;5453394;26;20686;-65
2024/04/24 02:18:12;;;;;;;1.65;1.08;;;15.50;55.60;;;;;;5439720;26;20232;-65
2024/04/24 02:20:37;;;;;;;1.23;0.60;;;15.50;55.60;;;;;;5417948;26;20263;-65
2024/04/24 02:23:04;;;;;;;1.65;0.70;;;15.50;55.60;;;;;;5417369;26;20567;-64
2024/04/24 02:25:33;;;;;;;1.13;0.65;;;15.50;55.60;;;;;;5416926;26;20224;-64
2024/04/24 02:27:59;;;;;;;1.60;0.95;;;15.50;55.70;;;;;;5417431;26;20220;-64
2024/04/24 02:30:24;;;;;;;1.23;0.88;;;15.50;55.70;;;;;;5417899;26;20263;-64
2024/04/24 02:32:50;;;;;;;2.35;0.80;;;15.50;55.70;;;;;;5416651;26;20269;-64
2024/04/24 02:35:15;;;;;;;3.20;0.88;;;15.40;55.60;;;;;;5417798;26;20228;-65
2024/04/24 02:37:41;;;;;;;1.80;0.70;;;15.50;55.70;;;;;;5417419;26;20228;-65
2024/04/24 02:40:07;;;;;;;0.85;0.70;;;15.50;55.70;;;;;;5416742;26;20694;-65
2024/04/24 02:42:34;;;;;;;0.40;0.40;;;15.50;55.70;;;;;;5417638;26;20224;-64
2024/04/24 02:44:59;;;;;;;0.80;0.73;;;15.40;55.60;;;;;;5417290;26;20229;-64
2024/04/24 02:47:25;;;;;;;1.10;0.77;;;15.50;55.70;;;;;;5415669;26;20221;-65
2024/04/24 02:49:50;;;;;;;1.73;0.90;;;15.40;55.60;;;;;;5417111;26;20220;-65
2024/04/24 02:52:16;;;;;;;1.42;0.88;;;15.40;55.70;;;;;;5417459;26;20695;-65
2024/04/24 02:54:41;;;;;;;1.35;0.90;;;15.40;55.70;;;;;;5416235;26;20232;-65
2024/04/24 02:57:07;;;;;;;1.48;0.95;;;15.40;55.70;;;;;;5417403;26;20225;-64
2024/04/24 02:59:32;;;;;;;1.27;0.70;;;15.40;55.70;;;;;;5417410;26;20221;-64
2024/04/24 03:01:58;;;;;;;2.60;0.90;;;15.40;55.70;;;;;;5416207;26;20317;-64
2024/04/24 03:04:23;;;;;;;1.05;0.95;;;15.40;55.70;;;;;;5417334;26;20216;-64
2024/04/24 03:06:49;;;;;;;1.33;1.08;;;15.40;55.70;;;;;;5416848;26;20263;-65
2024/04/24 03:09:14;;;;;;;2.15;0.90;;;15.40;55.70;;;;;;5416586;26;20267;-65
2024/04/24 03:11:40;;;;;;;1.17;0.80;;;15.40;55.70;;;;;;5415933;26;20221;-65
2024/04/24 03:14:06;;;;;;;1.27;0.70;;;15.40;55.80;;;;;;5417202;26;20220;-65
2024/04/24 03:16:32;;;;;;;1.20;0.73;;;15.30;55.70;;;;;;5416431;26;20220;-65
2024/04/24 03:18:57;;;;;;;1.13;0.80;;;15.40;55.70;;;;;;5416633;26;20627;-65
2024/04/24 03:21:23;;;;;;;0.65;0.60;;;15.40;55.70;;;;;;5416376;26;20554;-64
2024/04/24 03:23:48;;;;;;;0.90;0.70;;;15.40;55.80;;;;;;5416682;26;20590;-64
2024/04/24 03:26:14;;;;;;;1.35;0.70;;;15.30;55.70;;;;;;5416973;26;20228;-64
2024/04/24 03:28:39;;;;;;;1.38;0.80;;;15.30;55.70;;;;;;5415968;26;20553;-64
2024/04/24 03:31:05;;;;;;;0.75;0.75;;;15.30;55.70;;;;;;5416918;26;20224;-65
2024/04/24 03:33:30;;;;;;;1.92;1.02;;;15.30;55.70;;;;;;5416941;26;20641;-64
2024/04/24 03:35:56;;;;;;;3.00;1.00;;;15.30;55.80;;;;;;5415623;26;20676;-65
2024/04/24 03:38:21;;;;;;;1.38;0.80;;;15.30;55.80;;;;;;5416831;26;20216;-65
2024/04/24 03:40:47;;;;;;;0.85;0.60;;;15.30;55.80;;;;;;5416384;26;20663;-64
2024/04/24 03:43:13;;;;;;;1.65;1.15;;;15.30;55.80;;;;;;5415843;26;20699;-65
2024/04/24 03:45:38;;;;;;;1.08;1.02;;;15.30;55.90;;;;;;5416871;26;20216;-65
2024/04/24 03:48:04;;;;;;;1.17;0.70;;;15.30;55.80;;;;;;5416416;26;20251;-65
2024/04/24 03:50:30;;;;;;;1.52;0.73;;;15.30;55.80;;;;;;5416114;26;20217;-65
2024/04/24 03:52:55;;;;;;;1.60;0.80;;;15.30;55.90;;;;;;5416318;26;20750;-65
2024/04/24 03:55:21;;;;;;;1.55;0.77;;;15.30;55.80;;;;;;5416751;26;20217;-65
2024/04/24 03:57:46;;;;;;;0.95;0.80;;;15.30;55.90;;;;;;5415156;26;20263;-64
2024/04/24 04:00:12;;;;;;;2.90;1.00;;;15.20;55.80;;;;;;5416676;26;20217;-64
2024/04/24 04:02:38;;;;;;;1.35;0.70;;;15.20;55.80;;;;;;5416493;26;20221;-64
2024/04/24 04:05:04;;;;;;;2.13;1.20;;;15.20;55.80;;;;;;5415485;26;20224;-64
2024/04/24 04:07:29;;;;;;;2.80;1.13;;;15.20;55.80;;;;;;5416557;26;20268;-65
2024/04/24 04:09:55;;;;;;;1.00;0.90;;;15.20;55.80;;;;;;5415966;26;20329;-65
2024/04/24 04:12:20;;;;;;;1.95;0.75;;;15.20;55.90;;;;;;5415554;26;20263;-65
2024/04/24 04:14:46;;;;;;;1.75;1.13;;;15.20;56.00;;;;;;5415999;26;20266;-66
2024/04/24 04:17:11;;;;;;;0.88;0.77;;;15.20;55.90;;;;;;5416301;26;20243;-66
2024/04/24 04:19:37;;;;;;;1.83;0.90;;;15.20;55.90;;;;;;5415291;26;20291;-65
2024/04/24 04:22:02;;;;;;;2.05;1.02;;;15.20;56.00;;;;;;5415913;26;20216;-65
2024/04/24 04:24:28;;;;;;;1.08;0.65;;;15.20;55.90;;;;;;5416269;26;20220;-64
2024/04/24 04:26:53;;;;;;;1.10;0.70;;;15.20;56.00;;;;;;5415000;26;20216;-65
2024/04/24 04:29:19;;;;;;;2.03;0.80;;;15.20;56.00;;;;;;5416148;26;20224;-65
2024/04/24 04:31:44;;;;;;;1.42;0.80;;;15.20;56.00;;;;;;5414891;26;20225;-65
2024/04/24 04:34:10;;;;;;;1.30;0.90;;;15.20;56.00;;;;;;5416112;26;20217;-65
2024/04/24 04:36:35;;;;;;;1.17;1.00;;;15.20;56.00;;;;;;5416085;26;20298;-65
2024/04/24 04:39:01;;;;;;;1.02;1.00;;;15.20;56.70;;;;;;5414789;26;20255;-65
2024/04/24 04:41:32;;;;;;;1.92;0.95;;;15.10;56.00;;;;;;5416003;26;20524;-66
2024/04/24 04:43:58;;;;;;;0.73;0.65;;;15.20;56.00;;;;;;5415559;26;20221;-65
2024/04/24 04:46:23;;;;;;;2.13;0.80;;;15.20;56.00;;;;;;5415115;26;20259;-64
2024/04/24 04:48:49;;;;;;;1.50;0.80;;;15.30;55.90;;;;;;5415453;26;20220;-65
2024/04/24 04:51:14;;;;;;;1.20;0.75;;;15.30;55.90;;;;;;5415681;26;20687;-65
2024/04/24 04:53:40;;;;;;;1.58;0.77;;;15.30;55.80;;;;;;5414709;26;20220;-65
2024/04/24 04:56:06;;;;;;;1.15;0.70;;;15.30;55.90;;;;;;5415550;26;20225;-64
2024/04/24 04:58:31;;;;;;;1.10;0.75;;;15.30;55.80;;;;;;5415539;26;20224;-64
2024/04/24 05:00:57;;;;;;;1.30;0.77;;;15.30;55.90;;;;;;5414416;26;20700;-65
2024/04/24 05:03:22;;;;;;;1.65;0.73;;;15.30;55.90;;;;;;5415379;26;20711;-64
2024/04/24 05:05:48;;;;;;;0.63;0.50;;;15.30;55.90;;;;;;5414847;26;20225;-66
2024/04/24 05:08:13;;;;;;;1.30;0.88;;;15.30;55.90;;;;;;5414636;26;20304;-65
2024/04/24 05:10:39;;;;;;;1.95;0.70;;;15.30;56.00;;;;;;5417573;26;20224;-65
2024/04/24 05:13:11;;;;;;;0.90;0.70;;;15.20;55.80;;;;;;5419014;26;20549;-65
2024/04/24 05:15:37;;;;;;;2.58;0.60;;;15.30;55.90;;;;;;5418068;26;20291;-65
2024/04/24 05:18:06;;;;;;;0.88;0.75;;;15.30;55.90;;;;;;5418429;26;20236;-65
2024/04/24 05:20:31;;;;;;;2.10;0.95;;;15.40;55.80;;;;;;5418985;26;20680;-65
2024/04/24 05:23:03;;;;;;;1.05;0.70;;;15.40;55.70;;;;;;5417339;26;20225;-65
2024/04/24 05:25:31;;;;;;;1.13;0.88;;;15.40;55.70;;;;;;5418685;26;20232;-65
2024/04/24 05:30:41;;;;;;;1.33;0.80;;;15.40;55.70;;;;;;5418409;26;20288;-65
2024/04/24 05:33:06;;;;;;;0.90;0.80;;;15.40;55.70;;;;;;5418673;26;20700;-66
2024/04/24 05:35:35;;;;;;;0.70;0.60;;;15.40;55.80;;;;;;5417709;26;20276;-65
2024/04/24 05:38:00;;;;;;;1.23;0.80;;;15.40;55.80;;;;;;5418157;26;20225;-66
2024/04/24 05:40:26;;;;;;;1.17;0.77;;;15.30;55.70;;;;;;5418610;26;20224;-66
2024/04/24 05:42:51;;;;;;;1.67;0.75;;;15.30;55.70;;;;;;5417215;26;20232;-65
2024/04/24 05:45:17;;;;;;;0.52;0.52;;;15.50;55.80;;;;;;5418487;26;20262;-66
2024/04/24 05:47:45;;;;;;;1.35;0.73;;;15.50;55.80;;;;;;5418078;26;20727;-64
2024/04/24 05:50:11;;;;;;;2.00;0.70;;;15.70;55.70;;;;;;5417514;26;20285;-65
2024/04/24 05:52:37;;;;;;;0.82;0.60;;;15.80;55.60;;;;;;5418465;26;20683;-65
2024/04/24 05:55:02;;;;;;;1.70;0.60;;;15.80;55.40;;;;;;5417909;26;20251;-64
2024/04/24 05:57:29;;;;;;;1.10;0.68;;;15.80;55.30;;;;;;5417560;26;20224;-64
2024/04/24 06:00:00;;;;;;;2.00;0.85;;;15.80;55.30;;;;;;5417778;26;20258;-64
2024/04/24 06:02:26;;;;;;;0.60;0.60;;;15.90;55.30;;;;;;5418225;26;20220;-64
2024/04/24 06:04:51;;;;;;;1.02;0.77;;;16.00;55.30;;;;;;5416932;26;20378;-65
2024/04/24 06:07:17;;;;;;;1.05;0.70;;;16.20;55.20;;;;;;5418182;26;20650;-64
2024/04/24 06:09:43;;;;;;;1.83;0.80;;;16.30;55.00;;;;;;5417777;26;20695;-64
2024/04/24 06:12:08;;;;;;;1.90;0.82;;;16.50;54.90;;;;;;5417305;26;20220;-64
2024/04/24 06:14:34;;;;;;;1.23;0.70;;;16.60;54.70;;;;;;5418128;26;20224;-64
2024/04/24 06:16:59;;;;;;;0.70;0.70;;;16.70;54.60;;;;;;5417703;26;20225;-64
2024/04/24 06:19:25;;;;;;;0.93;0.70;;;16.90;54.50;;;;;;5417062;26;20333;-64
2024/04/24 06:21:50;;;;;;;1.20;0.85;;;17.00;54.40;;;;;;5416091;26;20225;-64
2024/04/24 06:24:17;;;;;;;2.42;0.95;;;17.00;54.30;;;;;;5416059;26;20259;-63
2024/04/24 06:26:42;;;;;;;2.35;1.45;;;17.10;54.40;;;;;;5417496;26;20221;-63
2024/04/24 06:29:08;;;;;;;1.42;0.70;;;17.10;54.30;;;;;;5417998;26;20221;-64
2024/04/24 06:31:34;;;;;;;3.70;1.10;;;17.20;54.40;;;;;;5416990;26;20683;-64
2024/04/24 06:34:00;;;;;;;1.38;0.68;;;17.30;54.50;;;;;;5417313;26;20546;-65
2024/04/24 06:36:25;;;;;;;1.50;0.80;;;17.40;54.20;;;;;;5417861;26;20220;-64
2024/04/24 06:38:52;;;;;;;1.33;0.90;;;17.40;54.30;;;;;;5417887;26;20217;-64
2024/04/24 06:41:18;;;;;;;2.38;0.88;;;17.50;54.40;;;;;;5416381;26;20600;-64
2024/04/24 06:43:43;;;;;;;4.32;1.20;;;17.50;54.50;;;;;;5417075;26;20224;-65
2024/04/24 06:46:09;;;;;;;1.10;0.70;;;17.50;54.70;;;;;;5416583;26;20325;-64
2024/04/24 06:48:34;;;;;;;1.45;0.70;;;17.50;54.70;;;;;;5417451;26;20386;-65
2024/04/24 06:51:00;;;;;;;1.95;0.90;;;17.50;54.90;;;;;;5416667;26;20228;-67
2024/04/24 06:53:26;;;;;;;2.65;1.05;;;17.50;54.90;;;;;;5416579;26;20233;-64
2024/04/24 06:55:52;;;;;;;2.58;1.20;;;17.50;55.00;;;;;;5417006;26;20228;-65
2024/04/24 06:58:20;;;;;;;1.92;0.88;;;17.50;54.90;;;;;;5416539;26;20221;-64
2024/04/24 07:00:47;;;;;;;5.22;1.27;;;17.60;55.10;;;;;;5416016;26;20554;-65
2024/04/24 07:03:13;;;;;;;1.17;0.65;;;17.60;54.90;;;;;;5417212;26;20734;-65
2024/04/24 07:05:38;;;;;;;2.95;1.13;;;17.60;54.90;;;;;;5417384;26;20224;-68
2024/04/24 07:08:07;;;;;;;1.98;0.90;;;17.60;55.00;;;;;;5416147;26;20711;-69
2024/04/24 07:10:33;;;;;;;2.78;1.00;;;17.60;55.00;;;;;;5417204;26;20236;-67
2024/04/24 07:12:58;;;;;;;2.47;0.90;;;17.60;55.00;;;;;;5416700;26;20337;-67
2024/04/24 07:15:24;;;;;;;1.35;0.80;;;17.60;55.10;;;;;;5416088;26;20228;-67
2024/04/24 07:17:51;;;;;;;1.25;0.90;;;17.60;55.00;;;;;;5416672;26;20236;-69
2024/04/24 07:20:17;;;;;;;4.20;1.15;;;17.60;55.00;;;;;;5417399;26;20224;-67
2024/04/24 07:22:42;;;;;;;3.65;0.73;;;17.60;55.00;;;;;;5415869;26;20302;-68
2024/04/24 07:25:08;;;;;;;3.20;1.15;;;17.60;55.10;;;;;;5417136;26;20224;-67
2024/04/24 07:27:33;;;;;;;3.05;0.80;;;17.60;55.10;;;;;;5416130;26;20232;-68
2024/04/24 07:29:59;;;;;;;1.77;0.88;;;17.60;55.10;;;;;;5414901;26;20840;-68
2024/04/24 07:32:25;;;;;;;4.05;1.00;;;17.60;55.00;;;;;;5416128;26;20225;-67
2024/04/24 07:34:50;;;;;;;3.72;1.13;;;17.60;55.00;;;;;;5415710;26;20255;-68
2024/04/24 07:37:16;;;;;;;3.08;1.08;;;17.60;55.20;;;;;;5416697;26;20221;-72
2024/04/24 07:39:41;;;;;;;1.67;0.80;;;17.60;55.20;;;;;;5414448;26;20220;-73
2024/04/24 07:42:10;;;;;;;2.88;0.90;;;17.60;55.10;;;;;;5415577;26;20228;-72
2024/04/24 07:44:35;;;;;;;2.33;0.90;;;17.50;55.10;;;;;;5416552;26;20330;-72
2024/04/24 07:47:01;;;;;;;2.25;0.80;;;17.40;55.20;;;;;;5416096;26;20617;-70
2024/04/24 07:49:26;;;;;;;1.83;1.00;;;17.40;55.20;;;;;;5415641;26;20627;-71
2024/04/24 07:51:52;;;;;;;3.13;1.38;;;17.40;55.30;;;;;;5416151;26;20232;-72
2024/04/24 07:54:17;;;;;;;2.28;0.85;;;17.30;55.30;;;;;;5416774;26;20776;-72
2024/04/24 07:56:43;;;;;;;1.52;0.95;;;17.30;55.40;;;;;;5415299;26;20232;-73
2024/04/24 07:59:08;;;;;;;1.13;0.80;;;17.20;55.40;;;;;;5416655;26;20216;-72
2024/04/24 08:01:34;;;;;;;3.75;1.20;;;17.20;55.50;;;;;;5416566;26;20224;-73
2024/04/24 08:03:59;;;;;;;2.17;0.98;;;17.10;55.50;;;;;;5415142;26;20390;-72
2024/04/24 08:06:28;;;;;;;2.47;1.10;;;17.10;55.60;;;;;;5416283;26;20553;-65
2024/04/24 08:08:54;;;;;;;1.73;1.00;;;17.10;55.60;;;;;;5415290;26;20228;-69
2024/04/24 08:11:19;;;;;;;1.85;0.85;;;17.10;55.60;;;;;;5415185;26;20325;-70
2024/04/24 08:13:45;;;;;;;3.78;0.80;;;17.10;55.60;;;;;;5415847;26;20687;-71
2024/04/24 08:16:10;;;;;;;2.92;0.82;;;17.10;55.60;;;;;;5416248;26;20236;-71
2024/04/24 08:18:36;;;;;;;2.00;1.00;;;17.10;55.60;;;;;;5434402;26;20243;-69
2024/04/24 08:21:01;;;;;;;1.50;0.90;;;17.10;55.60;;;;;;5451707;26;20223;-69
2024/04/24 08:23:27;;;;;;;1.95;0.85;;;17.10;55.60;;;;;;5450750;26;20293;-68
2024/04/24 08:25:53;;;;;;;3.50;1.25;;;17.10;55.80;;;;;;5450971;26;20258;-67
2024/04/24 08:28:19;;;;;;;2.95;0.88;;;17.00;55.90;;;;;;5452141;26;20215;-67
2024/04/24 08:30:44;;;;;;;1.40;0.98;;;17.00;55.90;;;;;;5450780;26;20254;-67
2024/04/24 08:33:10;;;;;;;2.05;1.23;;;16.90;55.90;;;;;;5452057;26;20611;-68
2024/04/24 08:35:36;;;;;;;2.35;1.13;;;17.00;55.90;;;;;;5452028;26;20313;-68
2024/04/24 08:38:01;;;;;;;2.05;0.90;;;17.00;55.90;;;;;;5450635;26;20207;-69
2024/04/24 08:40:28;;;;;;;2.97;1.17;;;17.10;55.90;;;;;;5451926;26;20254;-66
2024/04/24 08:42:53;;;;;;;2.40;0.80;;;17.10;55.90;;;;;;5451351;26;20270;-67
2024/04/24 08:45:19;;;;;;;1.80;0.90;;;17.00;55.80;;;;;;5449695;26;20255;-67
2024/04/24 08:47:45;;;;;;;3.28;1.00;;;17.00;55.80;;;;;;5449801;26;20261;-67
2024/04/24 08:50:11;;;;;;;3.88;1.10;;;17.00;55.80;;;;;;5443891;26;20259;-68
2024/04/24 08:52:38;;;;;;;1.33;0.80;;;16.90;55.80;;;;;;5413356;26;20213;-66
2024/04/24 08:55:04;;;;;;;2.08;1.02;;;16.90;55.80;;;;;;5411945;26;20256;-66
2024/04/24 08:57:31;;;;;;;3.25;1.08;;;16.90;55.90;;;;;;5413918;26;20594;-66
2024/04/24 08:59:59;;;;;;;1.45;1.27;;;16.90;55.90;;;;;;5414345;26;20679;-65
2024/04/24 09:02:26;;;;;;;1.50;0.70;;;16.90;56.50;;;;;;5415505;26;20268;-67
2024/04/24 09:04:52;;;;;;;2.80;1.00;;;17.00;55.90;;;;;;5413421;26;20609;-64
2024/04/24 09:07:18;;;;;;;1.98;1.02;;;17.00;55.80;;;;;;5412943;26;20352;-64
2024/04/24 09:09:44;;;;;;;1.88;0.80;;;17.10;55.70;;;;;;5415007;26;20221;-66
2024/04/24 09:12:09;;;;;;;1.38;0.98;;;17.20;55.60;;;;;;5413680;26;20317;-67
2024/04/24 09:14:35;;;;;;;2.10;0.80;;;17.20;55.50;;;;;;5414447;26;20267;-67
2024/04/24 09:17:04;;;;;;;1.20;0.70;;;17.20;55.40;;;;;;5423722;26;20273;-67
2024/04/24 09:19:30;;;;;;;2.13;0.88;;;17.30;55.40;;;;;;5448391;26;20403;-67
2024/04/24 09:21:56;;;;;;;1.55;0.70;;;17.40;55.50;;;;;;5449005;26;20714;-66
2024/04/24 09:24:21;;;;;;;1.90;0.93;;;17.40;55.50;;;;;;5449749;26;20232;-64
2024/04/24 09:26:47;;;;;;;3.08;1.08;;;17.40;55.40;;;;;;5449972;26;20231;-65
2024/04/24 09:29:13;;;;;;;2.05;0.80;;;17.40;55.40;;;;;;5448959;26;20231;-64
2024/04/24 09:31:40;;;;;;;1.77;0.82;;;17.40;55.30;;;;;;5445453;26;20231;-66
2024/04/24 09:34:08;;;;;;;2.05;0.90;;;17.40;55.40;;;;;;5449162;26;20278;-66
2024/04/24 09:36:37;;;;;;;0.88;0.60;;;17.30;55.50;;;;;;5450408;26;20235;-67
2024/04/24 09:39:15;;;;;;;1.40;0.93;;;17.30;55.70;;;;;;5444494;26;20250;-67
2024/04/24 09:41:47;;;;;;;2.70;0.82;;;17.20;55.80;;;;;;5448454;26;20391;-72
2024/04/24 09:44:12;;;;;;;2.30;0.80;;;17.10;55.90;;;;;;5450638;26;20702;-62
2024/04/24 09:46:48;;;;;;;2.05;0.82;;;17.10;56.10;;;;;;5450667;26;20301;-69
2024/04/24 09:49:14;;;;;;;1.80;1.10;;;17.00;56.20;;;;;;5449814;26;20243;-69
2024/04/24 09:51:40;;;;;;;3.08;0.80;;;17.10;56.20;;;;;;5450283;26;20258;-69
2024/04/24 09:54:06;;;;;;;2.17;0.60;;;17.10;56.10;;;;;;5450550;26;20223;-69
2024/04/24 09:56:31;;;;;;;1.17;0.95;;;17.20;56.00;;;;;;5451766;26;20223;-68
2024/04/24 09:59:00;;;;;;;2.47;0.55;;;17.30;56.00;;;;;;5422150;26;20219;-69
2024/04/24 10:01:26;;;;;;;1.70;0.73;;;17.40;56.00;;;;;;5452595;26;20287;-72
2024/04/24 10:03:54;;;;;;;2.00;0.70;;;17.60;55.80;;;;;;5452933;26;20231;-73
2024/04/24 10:06:23;;;;;;;1.48;0.70;;;17.80;55.70;;;;;;5454151;26;20258;-75
2024/04/24 10:08:54;;;;;;;1.00;0.70;;;18.00;55.30;;;;;;5453559;26;20232;-69
2024/04/24 10:11:20;;;;;;;1.10;0.40;;;18.00;55.40;;;;;;5451675;26;20257;-68
2024/04/24 10:13:49;;;;;;;0.70;0.50;;;18.10;55.40;;;;;;5451982;26;20628;-73
2024/04/24 10:16:14;;;;;;;1.33;0.40;;;18.40;55.10;;;;;;5451439;26;20258;-76
2024/04/24 10:18:40;;;;;;;1.77;0.55;;;18.50;54.80;;;;;;5452088;26;20231;-74
2024/04/24 10:21:08;;;;;;;2.55;0.60;;;18.60;54.60;;;;;;5454116;26;20265;-66
2024/04/24 10:23:34;;;;;;;1.15;0.60;;;18.80;54.40;;;;;;5421845;26;21027;-66
2024/04/24 10:25:59;;;;;;;1.00;0.40;;;18.90;54.00;;;;;;5451930;26;20270;-66
2024/04/24 10:28:25;;;;;;;0.50;0.50;;;19.00;53.80;;;;;;5454291;26;20290;-67
2024/04/24 10:30:52;;;;;;;1.98;0.70;;;19.10;53.60;;;;;;5420804;26;20223;-67
2024/04/24 10:33:17;;;;;;;1.27;0.70;;;19.00;53.70;;;;;;5453654;26;20262;-67
2024/04/24 10:35:43;;;;;;;1.75;0.60;;;19.00;53.70;;;;;;5453085;26;20223;-68
2024/04/24 10:38:08;;;;;;;3.70;0.70;;;19.00;53.90;;;;;;5450988;26;20223;-67
2024/04/24 10:40:34;;;;;;;1.02;0.50;;;18.80;53.80;;;;;;5453177;26;20224;-68
2024/04/24 10:43:06;;;;;;;0.65;0.50;;;18.90;53.90;;;;;;5453292;26;20720;-69
2024/04/24 10:45:38;;;;;;;0.68;0.60;;;18.90;53.70;;;;;;5452614;26;20273;-70
2024/04/24 10:48:04;;;;;;;1.27;0.70;;;18.90;53.70;;;;;;5453070;26;20228;-70
2024/04/24 10:50:30;;;;;;;1.30;0.77;;;18.90;53.80;;;;;;5453559;26;20220;-68
2024/04/24 10:52:56;;;;;;;0.93;0.73;;;18.80;53.90;;;;;;5452121;26;20257;-69
2024/04/24 10:55:22;;;;;;;1.55;0.85;;;18.80;54.10;;;;;;5453369;26;20795;-69
2024/04/24 10:57:48;;;;;;;2.97;0.85;;;18.70;54.10;;;;;;5452805;26;20231;-70
2024/04/24 11:00:18;;;;;;;2.25;0.57;;;18.70;54.20;;;;;;5452696;26;20271;-71
2024/04/24 11:02:44;;;;;;;0.60;0.50;;;18.70;54.30;;;;;;5452736;26;20220;-69
2024/04/24 11:05:10;;;;;;;1.67;0.45;;;18.80;54.40;;;;;;5451699;26;20231;-65
2024/04/24 11:07:36;;;;;;;0.95;0.60;;;18.90;54.20;;;;;;5451531;26;20257;-64
2024/04/24 11:10:05;;;;;;;3.42;0.82;;;19.00;54.00;;;;;;5452843;26;20220;-65
2024/04/24 11:12:38;;;;;;;1.23;0.50;;;19.00;53.90;;;;;;5452113;26;20678;-65
2024/04/24 11:15:05;;;;;;;2.20;0.70;;;19.10;53.90;;;;;;5451159;26;20219;-65
2024/04/24 11:17:30;;;;;;;2.33;0.68;;;19.10;53.80;;;;;;5450181;26;20262;-65
2024/04/24 11:19:56;;;;;;;0.95;0.60;;;19.10;53.70;;;;;;5416241;26;20221;-65
2024/04/24 11:22:28;;;;;;;2.55;0.85;;;19.20;53.60;;;;;;5417035;26;20216;-65
2024/04/24 11:24:56;;;;;;;0.60;0.52;;;19.10;53.70;;;;;;5416562;26;20325;-65
2024/04/24 11:27:25;;;;;;;0.70;0.50;;;19.00;53.90;;;;;;5415767;26;20256;-65
2024/04/24 11:29:52;;;;;;;0.88;0.70;;;19.00;54.00;;;;;;5416629;26;20313;-64
2024/04/24 11:32:18;;;;;;;1.00;0.63;;;18.90;54.00;;;;;;5416878;26;20643;-64
2024/04/24 11:34:44;;;;;;;3.00;0.77;;;19.00;54.00;;;;;;5415777;26;20325;-65
2024/04/24 11:37:10;;;;;;;2.78;1.00;;;19.10;53.90;;;;;;5385645;26;20329;-72
2024/04/24 11:39:35;;;;;;;1.80;0.80;;;19.10;53.60;;;;;;5416921;26;20571;-64
2024/04/24 11:42:01;;;;;;;2.08;0.90;;;19.30;53.60;;;;;;5384321;26;20264;-64
2024/04/24 11:44:28;;;;;;;2.22;0.90;;;19.30;53.50;;;;;;5416654;26;20311;-64
2024/04/24 11:46:53;;;;;;;1.67;0.80;;;19.30;53.40;;;;;;5385629;26;20296;-69
2024/04/24 11:49:19;;;;;;;0.90;0.60;;;19.30;53.30;;;;;;5415916;26;20232;-69
2024/04/24 11:51:44;;;;;;;1.75;0.50;;;19.40;53.40;;;;;;5416202;26;20232;-68
2024/04/24 11:54:12;;;;;;;1.80;0.80;;;19.40;53.30;;;;;;5416582;26;20221;-68
2024/04/24 11:56:40;;;;;;;2.95;1.10;;;19.50;53.30;;;;;;5384756;26;20220;-69
2024/04/24 11:59:06;;;;;;;2.40;0.60;;;19.40;54.00;;;;;;5357235;26;20317;-70
2024/04/24 12:01:34;;;;;;;1.85;0.85;;;19.50;53.20;;;;;;5416633;26;20217;-69
2024/04/24 12:04:00;;;;;;;0.98;0.65;;;19.50;53.40;;;;;;5415255;26;20213;-66
2024/04/24 12:06:25;;;;;;;2.92;0.93;;;19.50;53.40;;;;;;5385393;26;20346;-67
2024/04/24 12:08:51;;;;;;;1.35;0.60;;;19.60;53.40;;;;;;5414693;26;20683;-66
2024/04/24 12:11:16;;;;;;;2.00;0.73;;;19.50;53.20;;;;;;5385103;26;20817;-70
2024/04/24 12:13:43;;;;;;;2.25;1.00;;;19.60;53.10;;;;;;5416013;26;20228;-70
2024/04/24 12:16:09;;;;;;;1.45;0.70;;;19.40;53.30;;;;;;5415541;26;20236;-68
2024/04/24 12:18:37;;;;;;;2.40;0.70;;;19.40;53.50;;;;;;5433852;26;20235;-69
2024/04/24 12:21:03;;;;;;;3.95;0.82;;;19.50;53.40;;;;;;5450685;26;20295;-70
2024/04/24 12:23:30;;;;;;;1.88;0.80;;;19.50;53.30;;;;;;5448435;26;20228;-69
2024/04/24 12:25:55;;;;;;;1.65;0.50;;;19.50;53.20;;;;;;5450770;26;20232;-66
2024/04/24 12:28:21;;;;;;;1.35;0.70;;;19.40;53.40;;;;;;5451127;26;20237;-67
2024/04/24 12:30:50;;;;;;;2.22;0.70;;;19.30;53.70;;;;;;5450350;26;20276;-69
2024/04/24 12:33:16;;;;;;;1.05;0.60;;;19.10;53.90;;;;;;5451356;26;20287;-68
2024/04/24 12:35:41;;;;;;;1.42;0.75;;;19.00;54.20;;;;;;5450953;26;20332;-67
2024/04/24 12:38:07;;;;;;;2.50;0.70;;;18.90;54.40;;;;;;5450520;26;20287;-68
2024/04/24 12:40:33;;;;;;;2.20;0.90;;;18.70;54.50;;;;;;5451857;26;20223;-68
2024/04/24 12:42:58;;;;;;;1.92;1.10;;;18.70;54.70;;;;;;5451305;26;20594;-68
2024/04/24 12:45:24;;;;;;;1.30;0.63;;;18.60;54.80;;;;;;5451006;26;20722;-67